Time;durP1;ratioP1;P1;durP2;ratioP2;P2;SDS_P1;SDS_P2;PMS_P1;PMS_P2;Temp;Humidity;BMP_temperature;BMP_pressure;BME280_temperature;BME280_humidity;BME280_pressure;Samples;Min_cycle;Max_cycle;Signal;HPM_P1;HPM_P2
2024/04/21 00:01:30;;;;;;;937.23;880.17;;;6.00;99.90;;;;;;5526450;25;20535;-68
2024/04/21 00:03:59;;;;;;;912.37;863.00;;;5.90;99.90;;;;;;5526968;25;20578;-68
2024/04/21 00:06:24;;;;;;;896.40;849.40;;;5.90;99.90;;;;;;5523410;26;20258;-68
2024/04/21 00:08:53;;;;;;;863.80;821.13;;;5.90;99.90;;;;;;5527251;25;20468;-68
2024/04/21 00:11:19;;;;;;;778.53;744.37;;;5.80;99.90;;;;;;5527113;25;20299;-67
2024/04/21 00:13:50;;;;;;;691.53;663.43;;;5.80;99.90;;;;;;5512642;26;20566;-68
2024/04/21 00:16:15;;;;;;;627.33;602.43;;;5.80;99.90;;;;;;5527322;25;20270;-67
2024/04/21 00:18:44;;;;;;;611.23;587.00;;;5.70;99.90;;;;;;5526928;25;20460;-66
2024/04/21 00:21:12;;;;;;;789.30;754.47;;;5.70;99.90;;;;;;5526864;25;20357;-67
2024/04/21 00:23:40;;;;;;;791.43;756.77;;;5.70;99.90;;;;;;5526788;25;20460;-67
2024/04/21 00:26:06;;;;;;;773.73;739.47;;;5.60;99.90;;;;;;5527060;25;20460;-67
2024/04/21 00:28:34;;;;;;;704.67;675.17;;;5.60;99.90;;;;;;5526546;25;20870;-67
2024/04/21 00:31:03;;;;;;;812.37;775.90;;;5.60;99.90;;;;;;5526872;25;20735;-67
2024/04/21 00:33:31;;;;;;;728.87;696.57;;;5.60;99.90;;;;;;5525673;25;21023;-67
2024/04/21 00:35:57;;;;;;;770.87;736.80;;;5.60;99.90;;;;;;5516722;25;20533;-68
2024/04/21 00:38:26;;;;;;;647.37;620.30;;;5.60;99.90;;;;;;5521069;26;20464;-68
2024/04/21 00:40:52;;;;;;;560.80;539.13;;;5.60;99.90;;;;;;5526436;25;20633;-67
2024/04/21 00:43:20;;;;;;;563.83;542.53;;;5.60;99.90;;;;;;5525377;25;20484;-67
2024/04/21 00:45:48;;;;;;;561.00;539.60;;;5.50;99.90;;;;;;5512197;26;20227;-68
2024/04/21 00:48:21;;;;;;;481.00;464.00;;;5.40;99.90;;;;;;5526470;25;20460;-68
2024/04/21 00:50:49;;;;;;;488.50;471.07;;;5.20;99.90;;;;;;5523053;26;20489;-67
2024/04/21 00:53:20;;;;;;;432.00;417.33;;;5.10;99.90;;;;;;5525601;25;20468;-68
2024/04/21 00:55:46;;;;;;;497.93;479.47;;;5.00;99.90;;;;;;5525408;26;20589;-67
2024/04/21 00:58:17;;;;;;;606.53;582.03;;;4.90;99.90;;;;;;5526384;25;20469;-68
2024/04/21 01:00:44;;;;;;;555.70;534.13;;;4.80;99.90;;;;;;5526532;25;20453;-68
2024/04/21 01:03:12;;;;;;;653.73;626.53;;;4.80;99.90;;;;;;5525792;25;20569;-67
2024/04/21 01:05:41;;;;;;;752.90;718.23;;;4.70;99.90;;;;;;5520278;25;20480;-67
2024/04/21 01:08:11;;;;;;;810.20;771.03;;;4.60;99.90;;;;;;5526033;25;20817;-67
2024/04/21 01:10:37;;;;;;;824.87;784.20;;;4.70;99.90;;;;;;5520443;25;20464;-67
2024/04/21 01:13:11;;;;;;;914.40;861.30;;;4.70;99.90;;;;;;5525404;25;20523;-66
2024/04/21 01:15:37;;;;;;;921.23;866.00;;;4.70;99.90;;;;;;5526326;25;20234;-67
2024/04/21 01:18:06;;;;;;;922.07;864.67;;;4.70;99.90;;;;;;5526095;25;20542;-67
2024/04/21 01:20:34;;;;;;;930.27;872.37;;;4.70;99.90;;;;;;5525869;25;20456;-65
2024/04/21 01:23:05;;;;;;;931.20;870.60;;;4.70;99.90;;;;;;5525154;25;20595;-67
2024/04/21 01:25:31;;;;;;;927.43;865.03;;;4.70;99.90;;;;;;5525803;25;20565;-67
2024/04/21 01:28:00;;;;;;;927.43;866.73;;;4.70;99.90;;;;;;5525840;25;20457;-67
2024/04/21 01:30:26;;;;;;;930.40;867.20;;;4.60;99.90;;;;;;5525800;25;20472;-67
2024/04/21 01:32:54;;;;;;;941.17;874.40;;;4.50;99.90;;;;;;5525031;25;20461;-67
2024/04/21 01:35:20;;;;;;;934.30;865.77;;;4.40;99.90;;;;;;5525527;25;20519;-67
2024/04/21 01:37:48;;;;;;;922.50;856.27;;;4.40;99.90;;;;;;5525474;25;20567;-67
2024/04/21 01:40:17;;;;;;;925.77;853.03;;;4.30;99.90;;;;;;5518912;25;20578;-67
2024/04/21 01:42:46;;;;;;;924.07;854.20;;;4.30;99.90;;;;;;5518694;25;20517;-66
2024/04/21 01:45:12;;;;;;;933.47;855.03;;;4.30;99.90;;;;;;5517534;26;20554;-67
2024/04/21 01:47:40;;;;;;;929.03;849.37;;;4.30;99.90;;;;;;5525364;25;20515;-67
2024/04/21 01:50:07;;;;;;;928.67;852.13;;;4.30;99.90;;;;;;5525665;25;20516;-67
2024/04/21 01:52:35;;;;;;;926.60;845.10;;;4.30;99.90;;;;;;5524543;25;20858;-67
2024/04/21 01:55:01;;;;;;;910.07;829.20;;;4.40;99.90;;;;;;5515020;25;20962;-67
2024/04/21 01:57:32;;;;;;;904.40;828.10;;;4.50;99.90;;;;;;5525310;25;20461;-66
2024/04/21 01:59:58;;;;;;;934.27;856.17;;;4.50;99.90;;;;;;5524667;25;20583;-66
2024/04/21 02:02:26;;;;;;;924.97;852.20;;;4.50;99.90;;;;;;5524672;25;20475;-67
2024/04/21 02:04:52;;;;;;;922.50;857.00;;;4.60;99.90;;;;;;5525391;25;20319;-67
2024/04/21 02:07:21;;;;;;;843.23;796.97;;;4.60;99.90;;;;;;5525392;25;20460;-68
2024/04/21 02:09:46;;;;;;;764.83;733.27;;;4.70;99.90;;;;;;5507462;26;20227;-68
2024/04/21 02:12:15;;;;;;;643.90;621.43;;;3.80;99.90;;;;;;5505612;26;20625;-69
2024/04/21 02:14:43;;;;;;;447.47;432.70;;;3.00;99.90;;;;;;5524321;25;20231;-68
2024/04/21 02:17:12;;;;;;;391.83;378.50;;;2.40;99.90;;;;;;5524879;25;20464;-66
2024/04/21 02:19:38;;;;;;;355.27;343.77;;;2.10;99.90;;;;;;5524945;25;20512;-66
2024/04/21 02:22:06;;;;;;;325.73;315.70;;;1.70;99.90;;;;;;5524133;25;20817;-64
2024/04/21 02:24:39;;;;;;;463.80;449.43;;;1.50;99.90;;;;;;5525028;25;20239;-63
2024/04/21 02:27:08;;;;;;;657.13;633.07;;;1.40;99.90;;;;;;5524929;25;20456;-63
2024/04/21 02:29:34;;;;;;;742.53;712.67;;;1.50;99.90;;;;;;5525036;25;20547;-65
2024/04/21 02:32:05;;;;;;;814.40;776.30;;;1.70;99.90;;;;;;5524444;25;20559;-64
2024/04/21 02:34:31;;;;;;;916.07;851.27;;;1.90;99.90;;;;;;5524837;25;20535;-65
2024/04/21 02:36:59;;;;;;;899.50;829.63;;;2.10;99.90;;;;;;5524423;25;20949;-65
2024/04/21 02:39:25;;;;;;;885.73;808.03;;;2.10;99.90;;;;;;5524794;25;20574;-66
2024/04/21 02:41:55;;;;;;;875.47;797.80;;;2.10;99.90;;;;;;5523983;25;20468;-66
2024/04/21 02:44:21;;;;;;;855.10;771.30;;;2.20;99.90;;;;;;5524429;25;20227;-64
2024/04/21 02:46:49;;;;;;;856.23;776.77;;;2.20;99.90;;;;;;5524539;25;20528;-65
2024/04/21 02:49:17;;;;;;;860.97;784.90;;;2.20;99.90;;;;;;5524582;25;20476;-66
2024/04/21 02:51:46;;;;;;;865.57;787.53;;;2.20;99.90;;;;;;5523936;25;20548;-66
2024/04/21 02:54:12;;;;;;;882.67;797.83;;;2.10;99.90;;;;;;5524396;25;21106;-65
2024/04/21 02:56:40;;;;;;;884.87;801.77;;;2.10;99.90;;;;;;5524400;25;20566;-66
2024/04/21 02:59:06;;;;;;;882.93;793.63;;;2.10;99.90;;;;;;5524632;25;20282;-66
2024/04/21 03:01:34;;;;;;;895.63;802.43;;;2.10;99.90;;;;;;5523879;25;21456;-65
2024/04/21 03:04:00;;;;;;;897.30;803.00;;;2.10;99.90;;;;;;5524465;25;20361;-66
2024/04/21 03:06:31;;;;;;;905.97;810.50;;;2.00;99.90;;;;;;5521282;25;20465;-66
2024/04/21 03:08:57;;;;;;;916.27;818.50;;;2.00;99.90;;;;;;5524321;25;20866;-66
2024/04/21 03:11:25;;;;;;;931.23;828.73;;;2.00;99.90;;;;;;5518484;26;20575;-66
2024/04/21 03:13:51;;;;;;;936.70;839.23;;;2.00;99.90;;;;;;5527936;25;20579;-67
2024/04/21 03:16:19;;;;;;;979.17;872.00;;;2.00;99.90;;;;;;5527716;25;20569;-66
2024/04/21 03:18:45;;;;;;;951.87;846.93;;;2.00;99.90;;;;;;5524484;26;20266;-67
2024/04/21 03:21:14;;;;;;;975.37;868.37;;;2.10;99.90;;;;;;5524009;25;20459;-67
2024/04/21 03:23:42;;;;;;;957.73;853.30;;;2.00;99.90;;;;;;5527459;25;20388;-67
2024/04/21 03:26:10;;;;;;;976.10;869.97;;;2.00;99.90;;;;;;5527838;25;21115;-67
2024/04/21 03:28:36;;;;;;;1011.03;903.47;;;2.10;99.90;;;;;;5527522;25;20468;-66
2024/04/21 03:31:05;;;;;;;1006.23;897.63;;;2.00;99.90;;;;;;5527803;25;20452;-67
2024/04/21 03:33:31;;;;;;;1033.53;924.47;;;2.00;99.90;;;;;;5526664;25;20484;-67
2024/04/21 03:36:04;;;;;;;1014.93;904.37;;;2.00;99.90;;;;;;5527181;25;20577;-66
2024/04/21 03:38:33;;;;;;;1006.20;895.10;;;2.00;99.90;;;;;;5527438;25;20275;-67
2024/04/21 03:41:04;;;;;;;1040.53;929.97;;;2.00;99.90;;;;;;5527655;25;20536;-67
2024/04/21 03:43:33;;;;;;;1045.50;935.43;;;2.00;99.90;;;;;;5526562;25;20603;-67
2024/04/21 03:46:01;;;;;;;1070.10;957.97;;;2.00;99.90;;;;;;5527462;25;20523;-67
2024/04/21 03:48:27;;;;;;;1086.13;972.73;;;2.00;99.90;;;;;;5527302;25;20528;-67
2024/04/21 03:50:56;;;;;;;1085.03;971.57;;;2.10;99.90;;;;;;5527571;25;20460;-67
2024/04/21 03:53:22;;;;;;;1103.20;989.23;;;2.10;99.90;;;;;;5526671;25;20757;-67
2024/04/21 03:55:51;;;;;;;1091.13;977.10;;;2.10;99.90;;;;;;5527265;25;20464;-67
2024/04/21 03:58:19;;;;;;;1085.70;972.63;;;2.10;99.90;;;;;;5527288;25;20475;-67
2024/04/21 04:00:48;;;;;;;1080.20;966.80;;;2.20;99.90;;;;;;5527182;25;20464;-67
2024/04/21 04:03:15;;;;;;;1051.30;941.33;;;2.20;99.90;;;;;;5526305;25;20520;-67
2024/04/21 04:05:45;;;;;;;1045.37;932.57;;;2.20;99.90;;;;;;5526652;25;20448;-67
2024/04/21 04:08:10;;;;;;;1044.30;930.20;;;2.20;99.90;;;;;;5527282;25;20445;-68
2024/04/21 04:10:41;;;;;;;1056.93;948.37;;;2.10;99.90;;;;;;5527141;25;20516;-67
2024/04/21 04:13:07;;;;;;;1062.43;952.07;;;2.00;99.90;;;;;;5518754;25;20890;-68
2024/04/21 04:15:39;;;;;;;1068.13;956.27;;;2.00;99.90;;;;;;5523512;26;20468;-67
2024/04/21 04:18:05;;;;;;;1057.77;945.47;;;2.10;99.90;;;;;;5527014;25;20266;-67
2024/04/21 04:20:34;;;;;;;1091.53;977.07;;;2.10;99.90;;;;;;5524634;25;20464;-67
2024/04/21 04:22:59;;;;;;;1106.97;995.17;;;2.10;99.90;;;;;;5525607;25;20472;-68
2024/04/21 04:25:29;;;;;;;1076.67;965.17;;;2.00;99.90;;;;;;5527249;25;20573;-67
2024/04/21 04:27:55;;;;;;;1086.67;974.27;;;2.00;99.90;;;;;;5526795;25;20220;-67
2024/04/21 04:30:24;;;;;;;1086.90;972.40;;;2.00;99.90;;;;;;5526557;25;20505;-68
2024/04/21 04:32:52;;;;;;;1050.77;938.57;;;2.10;99.90;;;;;;5526431;25;20461;-67
2024/04/21 04:35:21;;;;;;;1065.20;954.00;;;2.20;99.90;;;;;;5526729;25;20528;-67
2024/04/21 04:37:46;;;;;;;1096.50;984.23;;;2.30;99.90;;;;;;5521974;26;20452;-67
2024/04/21 04:40:15;;;;;;;1071.67;960.03;;;2.50;99.90;;;;;;5527032;25;20452;-68
2024/04/21 04:42:41;;;;;;;1066.27;955.17;;;2.60;99.90;;;;;;5525368;25;20599;-67
2024/04/21 04:45:09;;;;;;;1093.83;985.13;;;2.70;99.90;;;;;;5526806;25;20476;-68
2024/04/21 04:47:35;;;;;;;1071.83;959.27;;;2.80;99.90;;;;;;5526535;25;20356;-68
2024/04/21 04:50:07;;;;;;;1067.17;960.10;;;2.90;99.90;;;;;;5526671;25;21015;-70
2024/04/21 04:52:33;;;;;;;1077.30;971.47;;;3.10;99.90;;;;;;5526115;25;21011;-68
2024/04/21 04:55:02;;;;;;;1038.10;935.47;;;3.20;99.90;;;;;;5516668;25;20529;-68
2024/04/21 04:57:28;;;;;;;1009.27;907.80;;;3.10;99.90;;;;;;5522105;26;21022;-69
2024/04/21 04:59:57;;;;;;;1022.40;918.20;;;3.20;99.90;;;;;;5526346;25;20545;-69
2024/04/21 05:02:22;;;;;;;1049.77;946.07;;;3.40;99.90;;;;;;5525388;25;20316;-69
2024/04/21 05:04:51;;;;;;;1055.17;953.37;;;3.50;99.90;;;;;;5506317;25;20878;-70
2024/04/21 05:07:19;;;;;;;1052.13;951.37;;;3.40;99.90;;;;;;5512537;25;20528;-70
2024/04/21 05:09:48;;;;;;;1020.27;918.20;;;3.50;99.90;;;;;;5520184;26;20512;-69
2024/04/21 05:12:13;;;;;;;1011.37;910.67;;;3.60;99.90;;;;;;5509758;25;20812;-70
2024/04/21 05:14:43;;;;;;;982.97;884.53;;;3.80;99.90;;;;;;5525932;25;20476;-70
2024/04/21 05:17:08;;;;;;;973.10;875.43;;;3.80;99.90;;;;;;5525763;25;20604;-70
2024/04/21 05:19:37;;;;;;;949.87;853.17;;;3.80;99.90;;;;;;5525726;25;20464;-70
2024/04/21 05:22:03;;;;;;;953.03;858.03;;;3.80;99.90;;;;;;5524833;25;20334;-71
2024/04/21 05:24:34;;;;;;;967.57;871.33;;;3.90;99.90;;;;;;5508007;25;20594;-70
2024/04/21 05:27:02;;;;;;;946.20;851.80;;;4.00;99.90;;;;;;5488952;26;20473;-71
2024/04/21 05:29:30;;;;;;;950.27;856.17;;;4.00;99.90;;;;;;5519442;26;20826;-71
2024/04/21 05:31:56;;;;;;;932.93;841.33;;;3.90;99.90;;;;;;5488132;26;20466;-71
2024/04/21 05:34:25;;;;;;;932.83;840.93;;;4.10;99.90;;;;;;5493341;26;20585;-71
2024/04/21 05:36:51;;;;;;;912.80;825.07;;;4.00;99.90;;;;;;5512266;25;20517;-71
2024/04/21 05:39:19;;;;;;;897.47;812.53;;;4.20;99.90;;;;;;5495820;25;20473;-72
2024/04/21 05:41:47;;;;;;;892.30;807.90;;;4.20;99.90;;;;;;5500952;26;20223;-71
2024/04/21 05:44:16;;;;;;;898.17;813.00;;;4.20;99.90;;;;;;5514532;25;20516;-71
2024/04/21 05:46:42;;;;;;;863.17;785.57;;;4.30;99.90;;;;;;5524460;26;20524;-71
2024/04/21 05:49:10;;;;;;;855.07;782.90;;;4.40;99.90;;;;;;5522443;25;21127;-72
2024/04/21 05:51:36;;;;;;;858.13;783.30;;;4.40;99.90;;;;;;5515277;26;20326;-71
2024/04/21 05:54:04;;;;;;;859.20;791.10;;;4.60;99.90;;;;;;5505417;26;20474;-71
2024/04/21 05:56:30;;;;;;;862.43;794.60;;;4.60;99.90;;;;;;5511879;26;20331;-72
2024/04/21 05:59:02;;;;;;;850.87;781.30;;;4.70;99.90;;;;;;5496929;26;20517;-72
2024/04/21 06:01:27;;;;;;;852.40;785.60;;;4.80;99.90;;;;;;5487483;26;20516;-72
2024/04/21 06:03:56;;;;;;;863.13;799.87;;;4.90;99.90;;;;;;5488252;26;20461;-72
2024/04/21 06:06:22;;;;;;;856.70;798.90;;;4.90;99.90;;;;;;5488365;26;20237;-72
2024/04/21 06:08:50;;;;;;;870.60;810.37;;;4.80;99.90;;;;;;5510769;26;20581;-72
2024/04/21 06:11:16;;;;;;;850.07;796.13;;;4.70;99.90;;;;;;5507787;25;20224;-72
2024/04/21 06:13:45;;;;;;;855.80;805.90;;;4.60;99.90;;;;;;5519416;25;20890;-71
2024/04/21 06:16:13;;;;;;;864.00;809.47;;;4.50;99.90;;;;;;5524917;26;20228;-72
2024/04/21 06:18:42;;;;;;;865.70;813.97;;;4.40;99.90;;;;;;5495347;25;20509;-71
2024/04/21 06:21:08;;;;;;;851.63;801.93;;;4.30;99.90;;;;;;5505898;25;20468;-72
2024/04/21 06:23:37;;;;;;;871.63;819.67;;;4.30;99.90;;;;;;5507430;25;20452;-71
2024/04/21 06:26:03;;;;;;;867.90;813.80;;;4.40;99.90;;;;;;5517315;25;20457;-71
2024/04/21 06:28:31;;;;;;;860.80;808.90;;;4.60;99.90;;;;;;5499504;25;20529;-71
2024/04/21 06:30:57;;;;;;;866.03;811.20;;;4.60;99.90;;;;;;5512795;26;20452;-70
2024/04/21 06:33:29;;;;;;;867.90;815.13;;;4.60;99.90;;;;;;5524094;25;20590;-71
2024/04/21 06:35:57;;;;;;;866.17;813.20;;;4.70;99.90;;;;;;5516176;25;20831;-71
2024/04/21 06:38:23;;;;;;;866.57;813.00;;;4.90;99.90;;;;;;5504309;26;20573;-71
2024/04/21 06:40:51;;;;;;;868.87;815.47;;;4.90;99.90;;;;;;5517779;25;21032;-71
2024/04/21 06:43:17;;;;;;;874.63;818.97;;;4.90;99.90;;;;;;5518283;26;20832;-70
2024/04/21 06:45:48;;;;;;;880.07;821.47;;;5.10;99.90;;;;;;5525482;25;20508;-71
2024/04/21 06:48:14;;;;;;;885.03;823.60;;;5.30;99.90;;;;;;5524644;25;20224;-71
2024/04/21 06:50:45;;;;;;;874.93;816.73;;;5.50;99.90;;;;;;5526894;25;20890;-70
2024/04/21 06:53:11;;;;;;;881.87;827.27;;;5.60;99.90;;;;;;5526022;25;21014;-70
2024/04/21 06:55:40;;;;;;;868.87;820.03;;;5.30;99.90;;;;;;5522287;25;20708;-70
2024/04/21 06:58:06;;;;;;;864.37;818.17;;;5.10;99.90;;;;;;5489310;26;20263;-69
2024/04/21 07:00:36;;;;;;;815.07;777.10;;;5.10;99.90;;;;;;5523329;26;20551;-69
2024/04/21 07:03:02;;;;;;;837.57;795.97;;;5.20;99.90;;;;;;5499736;25;20465;-69
2024/04/21 07:05:31;;;;;;;811.13;774.50;;;5.30;99.90;;;;;;5489352;26;20512;-69
2024/04/21 07:07:59;;;;;;;784.67;750.53;;;5.30;99.90;;;;;;5488991;26;20523;-68
2024/04/21 07:10:28;;;;;;;813.10;775.77;;;5.30;99.90;;;;;;5487837;26;20895;-68
2024/04/21 07:12:53;;;;;;;794.47;759.73;;;5.40;99.90;;;;;;5487612;26;20462;-68
2024/04/21 07:15:22;;;;;;;721.00;692.47;;;5.20;99.90;;;;;;5519998;26;21082;-72
2024/04/21 07:17:48;;;;;;;781.00;745.90;;;5.20;99.90;;;;;;5525144;25;20469;-73
2024/04/21 07:20:18;;;;;;;801.07;764.70;;;5.30;99.90;;;;;;5526280;25;20585;-73
2024/04/21 07:22:44;;;;;;;807.07;770.17;;;5.40;99.90;;;;;;5525922;25;20569;-72
2024/04/21 07:25:17;;;;;;;831.07;792.63;;;5.50;99.90;;;;;;5526105;25;20999;-72
2024/04/21 07:27:45;;;;;;;857.87;811.90;;;5.50;99.90;;;;;;5526202;25;20527;-73
2024/04/21 07:30:11;;;;;;;866.70;819.17;;;5.60;99.90;;;;;;5513564;25;20466;-73
2024/04/21 07:32:40;;;;;;;865.13;819.13;;;5.90;99.90;;;;;;5488315;26;20465;-72
2024/04/21 07:35:06;;;;;;;851.57;809.63;;;5.90;99.90;;;;;;5488708;26;20975;-72
2024/04/21 07:37:35;;;;;;;839.70;799.37;;;5.90;99.90;;;;;;5505635;26;20476;-71
2024/04/21 07:40:01;;;;;;;799.70;762.97;;;5.90;99.90;;;;;;5524453;25;20525;-71
2024/04/21 07:42:32;;;;;;;635.60;613.03;;;5.90;99.90;;;;;;5524208;25;20853;-69
2024/04/21 07:44:57;;;;;;;616.93;594.67;;;5.80;99.90;;;;;;5525649;25;20513;-70
2024/04/21 07:47:26;;;;;;;518.80;500.80;;;6.10;99.90;;;;;;5495050;25;20884;-69
2024/04/21 07:49:52;;;;;;;630.87;607.23;;;5.90;99.90;;;;;;5525889;25;20771;-67
2024/04/21 07:52:20;;;;;;;775.67;741.23;;;6.20;99.90;;;;;;5509688;25;20501;-68
2024/04/21 07:54:46;;;;;;;780.63;745.90;;;6.50;99.90;;;;;;5511000;26;20232;-69
2024/04/21 07:57:16;;;;;;;735.53;703.83;;;6.60;99.90;;;;;;5525109;25;21059;-68
2024/04/21 07:59:44;;;;;;;787.93;753.73;;;6.70;99.90;;;;;;5489005;25;20267;-68
2024/04/21 08:02:13;;;;;;;247.17;238.43;;;6.40;99.90;;;;;;5515924;26;21087;-68
2024/04/21 08:04:39;;;;;;;346.53;334.33;;;6.60;99.90;;;;;;5517412;25;20520;-68
2024/04/21 08:07:07;;;;;;;91.80;87.65;;;6.70;99.90;;;;;;5497688;26;20720;-68
2024/04/21 08:09:34;;;;;;;48.08;45.38;;;6.90;99.90;;;;;;5523328;25;21049;-68
2024/04/21 08:12:04;;;;;;;40.57;38.37;;;6.80;99.90;;;;;;5523563;25;20220;-67
2024/04/21 08:14:29;;;;;;;27.30;25.10;;;6.80;99.90;;;;;;5525394;25;20535;-68
2024/04/21 08:17:01;;;;;;;32.30;30.27;;;6.70;96.80;;;;;;5526862;25;20448;-68
2024/04/21 08:19:26;;;;;;;24.33;22.63;;;6.90;99.90;;;;;;5494599;25;20267;-67
2024/04/21 08:21:55;;;;;;;28.13;26.30;;;6.80;96.80;;;;;;5497566;26;20472;-68
2024/04/21 08:24:21;;;;;;;40.43;38.43;;;6.90;91.70;;;;;;5511608;25;20646;-67
2024/04/21 08:26:54;;;;;;;30.90;29.47;;;7.30;96.90;;;;;;5512673;26;20487;-67
2024/04/21 08:29:22;;;;;;;14.33;13.23;;;7.30;94.00;;;;;;5512110;25;20513;-68
2024/04/21 08:31:50;;;;;;;17.17;15.60;;;7.30;90.40;;;;;;5489410;26;20465;-68
2024/04/21 08:34:20;;;;;;;12.73;8.40;;;7.70;97.20;;;;;;5490073;26;20474;-68
2024/04/21 08:36:48;;;;;;;7.63;6.00;;;7.50;90.20;;;;;;5511880;26;20846;-67
2024/04/21 08:39:14;;;;;;;8.10;5.80;;;6.90;90.10;;;;;;5527191;25;20461;-68
2024/04/21 08:41:43;;;;;;;6.23;5.13;;;7.10;90.30;;;;;;5505429;25;20469;-67
2024/04/21 08:44:12;;;;;;;8.93;5.07;;;6.80;90.10;;;;;;5487662;26;20458;-67
2024/04/21 08:46:40;;;;;;;11.33;6.90;;;6.60;89.30;;;;;;5521077;26;20452;-67
2024/04/21 08:49:07;;;;;;;6.33;4.20;;;6.80;93.80;;;;;;5517004;26;20464;-67
2024/04/21 08:51:39;;;;;;;9.00;4.70;;;6.40;82.90;;;;;;5525762;25;20480;-67
2024/04/21 08:54:05;;;;;;;6.70;4.60;;;6.50;89.90;;;;;;5499723;25;20516;-67
2024/04/21 08:56:34;;;;;;;11.50;5.70;;;6.50;88.50;;;;;;5492052;26;20453;-67
2024/04/21 08:59:03;;;;;;;8.33;5.53;;;6.60;90.00;;;;;;5515216;25;20264;-67
2024/04/21 09:01:32;;;;;;;7.33;4.53;;;6.80;82.80;;;;;;5521352;26;20896;-67
2024/04/21 09:03:59;;;;;;;10.47;4.63;;;7.00;82.90;;;;;;5499910;25;20469;-66
2024/04/21 09:06:28;;;;;;;9.07;5.27;;;7.40;75.70;;;;;;5487422;26;20517;-67
2024/04/21 09:08:57;;;;;;;8.80;4.50;;;7.70;83.50;;;;;;5487850;26;20474;-68
2024/04/21 09:11:29;;;;;;;6.90;4.33;;;7.50;59.80;;;;;;5517751;26;20809;-68
2024/04/21 09:13:55;;;;;;;7.70;4.40;;;8.20;60.40;;;;;;5526674;25;20923;-68
2024/04/21 09:16:26;;;;;;;8.10;4.27;;;8.30;52.20;;;;;;5496107;25;20564;-68
2024/04/21 09:18:52;;;;;;;9.33;4.70;;;8.30;52.10;;;;;;5489174;26;21048;-68
2024/04/21 09:21:20;;;;;;;8.10;4.53;;;8.40;43.50;;;;;;5488729;26;20522;-68
2024/04/21 09:23:47;;;;;;;9.23;4.70;;;8.50;43.60;;;;;;5496115;26;20867;-66
2024/04/21 09:26:18;;;;;;;9.80;5.40;;;9.00;49.10;;;;;;5510645;25;20460;-68
2024/04/21 09:28:44;;;;;;;9.47;4.07;;;9.30;44.30;;;;;;5526433;25;20219;-68
2024/04/21 09:31:12;;;;;;;7.50;3.83;;;9.70;35.80;;;;;;5526230;25;20860;-68
2024/04/21 09:33:38;;;;;;;10.10;4.63;;;9.40;35.50;;;;;;5525165;25;20620;-68
2024/04/21 09:36:08;;;;;;;8.63;4.10;;;9.30;32.90;;;;;;5499964;25;20778;-68
2024/04/21 09:38:35;;;;;;;14.20;4.23;;;9.00;31.40;;;;;;5523129;26;20464;-68
2024/04/21 09:41:06;;;;;;;9.10;3.90;;;8.70;34.90;;;;;;5526195;25;20456;-67
2024/04/21 09:43:34;;;;;;;6.83;4.10;;;8.80;35.40;;;;;;5508366;25;20466;-67
2024/04/21 09:46:04;;;;;;;6.70;4.20;;;9.40;44.20;;;;;;5525346;25;20525;-68
2024/04/21 09:48:33;;;;;;;9.93;4.80;;;9.60;35.70;;;;;;5525702;25;20508;-67
2024/04/21 09:51:02;;;;;;;7.93;3.70;;;9.70;35.70;;;;;;5525748;25;20541;-67
2024/04/21 09:53:29;;;;;;;7.80;4.50;;;9.80;27.60;;;;;;5525318;25;20483;-67
2024/04/21 09:55:58;;;;;;;6.47;3.53;;;9.60;27.50;;;;;;5501389;25;21024;-66
2024/04/21 09:58:25;;;;;;;5.63;3.20;;;9.50;30.60;;;;;;5519739;26;20521;-68
2024/04/21 10:00:58;;;;;;;9.03;3.47;;;9.30;27.20;;;;;;5525645;25;20460;-68
2024/04/21 10:03:24;;;;;;;6.27;3.87;;;10.10;27.00;;;;;;5523290;25;20513;-68
2024/04/21 10:05:55;;;;;;;7.10;3.87;;;10.00;26.90;;;;;;5496557;26;20465;-67
2024/04/21 10:08:21;;;;;;;8.80;3.03;;;10.30;27.20;;;;;;5525783;25;20479;-67
2024/04/21 10:10:52;;;;;;;7.07;4.40;;;10.10;19.90;;;;;;5524736;25;20478;-66
2024/04/21 10:13:19;;;;;;;9.13;5.47;;;10.60;21.00;;;;;;5524584;25;20919;-67
2024/04/21 10:15:48;;;;;;;6.03;3.20;;;10.50;20.20;;;;;;5525409;25;20461;-65
2024/04/21 10:18:23;;;;;;;14.33;3.97;;;11.20;1.00;;;;;;5493450;25;20616;-66
2024/04/21 10:20:51;;;;;;;6.70;3.70;;;11.40;1.00;;;;;;5509575;26;21070;-66
2024/04/21 10:23:19;;;;;;;6.10;3.20;;;11.00;1.00;;;;;;5524125;25;20613;-67
2024/04/21 10:25:49;;;;;;;7.83;4.57;;;11.50;1.00;;;;;;5518584;25;20509;-67
2024/04/21 10:28:24;;;;;;;7.97;4.53;;;11.90;1.00;;;;;;5517306;26;20448;-66
2024/04/21 10:30:53;;;;;;;6.50;2.77;;;11.60;1.00;;;;;;5524990;25;20472;-67
2024/04/21 10:33:28;;;;;;;7.37;3.77;;;11.30;1.00;;;;;;5508999;25;20525;-67
2024/04/21 10:35:56;;;;;;;6.00;3.00;;;11.90;1.00;;;;;;5511792;26;20816;-66
2024/04/21 10:38:22;;;;;;;8.33;4.00;;;11.80;1.00;;;;;;5524538;25;20875;-67
2024/04/21 10:40:51;;;;;;;6.50;3.70;;;11.90;1.00;;;;;;5517485;25;20496;-66
2024/04/21 10:43:20;;;;;;;7.90;3.90;;;11.70;1.00;;;;;;5514909;26;20283;-67
2024/04/21 10:45:49;;;;;;;7.73;3.93;;;11.90;1.00;;;;;;5517973;25;20530;-67
2024/04/21 10:48:15;;;;;;;6.33;2.80;;;12.40;1.00;;;;;;5487701;26;20457;-67
2024/04/21 10:50:46;;;;;;;5.73;2.80;;;12.60;1.00;;;;;;5492798;26;20460;-67
2024/04/21 10:53:12;;;;;;;6.47;3.07;;;13.50;1.00;;;;;;5523759;25;20570;-67
2024/04/21 10:55:41;;;;;;;5.90;2.60;;;13.40;1.00;;;;;;5504691;25;20681;-67
2024/04/21 10:58:08;;;;;;;7.47;3.50;;;13.60;1.00;;;;;;5499004;26;20457;-67
2024/04/21 11:00:38;;;;;;;5.43;2.43;;;12.60;1.00;;;;;;5522759;25;20464;-66
2024/04/21 11:03:04;;;;;;;6.80;2.63;;;13.10;1.00;;;;;;5510863;25;20579;-67
2024/04/21 11:05:42;;;;;;;5.97;2.37;;;13.60;1.00;;;;;;5485156;26;20526;-67
2024/04/21 11:08:10;;;;;;;6.23;2.73;;;14.20;1.00;;;;;;5485720;26;20611;-67
2024/04/21 11:10:39;;;;;;;7.30;2.57;;;14.40;1.00;;;;;;5485479;26;20515;-65
2024/04/21 11:13:06;;;;;;;6.00;2.60;;;14.20;1.00;;;;;;5496848;26;20464;-67
2024/04/21 11:15:41;;;;;;;6.40;2.43;;;13.40;1.00;;;;;;5508874;25;20510;-67
2024/04/21 11:18:08;;;;;;;4.97;1.93;;;13.00;1.00;;;;;;5523774;25;20456;-66
2024/04/21 11:20:36;;;;;;;8.00;3.00;;;12.10;1.00;;;;;;5523745;25;20470;-65
2024/04/21 11:23:03;;;;;;;6.90;2.73;;;12.00;1.00;;;;;;5522288;25;20563;-67
2024/04/21 11:25:34;;;;;;;5.87;2.70;;;11.90;1.00;;;;;;5523397;25;20547;-66
2024/04/21 11:28:07;;;;;;;6.53;3.07;;;12.10;1.00;;;;;;5513826;25;20461;-66
2024/04/21 11:30:36;;;;;;;6.20;3.00;;;11.60;1.00;;;;;;5486970;26;20521;-67
2024/04/21 11:33:02;;;;;;;5.20;2.30;;;12.30;1.00;;;;;;5486456;26;20568;-67
2024/04/21 11:35:31;;;;;;;7.63;3.20;;;12.00;1.00;;;;;;5507900;26;20476;-67
2024/04/21 11:37:57;;;;;;;5.57;2.27;;;11.60;1.00;;;;;;5503121;25;20525;-67
2024/04/21 11:40:25;;;;;;;6.93;2.73;;;11.40;1.00;;;;;;5490583;26;20514;-66
2024/04/21 11:42:56;;;;;;;5.20;2.37;;;11.40;1.00;;;;;;5488462;26;20587;-66
2024/04/21 11:45:28;;;;;;;6.33;2.40;;;11.50;1.00;;;;;;5503978;26;20542;-66
2024/04/21 11:47:54;;;;;;;6.53;2.00;;;11.40;1.00;;;;;;5526968;25;20535;-66
2024/04/21 11:50:23;;;;;;;5.17;2.03;;;12.10;1.00;;;;;;5527333;25;20539;-66
2024/04/21 11:52:49;;;;;;;6.20;2.27;;;13.90;1.00;;;;;;5511716;26;20523;-65
2024/04/21 11:55:17;;;;;;;5.60;2.43;;;14.30;1.00;;;;;;5527408;25;20558;-71
2024/04/21 11:57:43;;;;;;;4.87;1.73;;;14.80;1.00;;;;;;5505369;25;20529;-67
2024/04/21 12:00:16;;;;;;;5.13;2.00;;;15.20;1.00;;;;;;5517943;26;21010;-65
2024/04/21 12:02:42;;;;;;;5.17;1.90;;;15.20;1.00;;;;;;5520412;25;20276;-67
2024/04/21 12:05:10;;;;;;;5.73;1.70;;;15.10;1.00;;;;;;5490369;26;20543;-67
2024/04/21 12:07:36;;;;;;;4.70;1.50;;;13.10;1.00;;;;;;5489465;26;20481;-66
2024/04/21 12:10:05;;;;;;;6.30;1.97;;;12.20;1.00;;;;;;5489619;26;20465;-66
2024/04/21 12:12:31;;;;;;;5.10;2.10;;;11.70;1.00;;;;;;5488079;26;20267;-66
2024/04/21 12:15:00;;;;;;;5.40;1.93;;;11.40;1.00;;;;;;5490054;26;20528;-67
2024/04/21 12:17:28;;;;;;;5.57;1.83;;;13.00;1.00;;;;;;5506546;26;20468;-66
2024/04/21 12:19:57;;;;;;;6.50;2.20;;;13.90;1.00;;;;;;5526906;25;20539;-66
2024/04/21 12:22:24;;;;;;;6.33;2.33;;;14.40;1.00;;;;;;5526192;25;20509;-67
2024/04/21 12:24:53;;;;;;;5.10;2.00;;;14.40;1.00;;;;;;5519811;25;20520;-66
2024/04/21 12:27:19;;;;;;;5.70;1.70;;;13.50;1.00;;;;;;5489993;26;20514;-68
2024/04/21 12:29:48;;;;;;;5.30;2.30;;;14.20;1.00;;;;;;5490331;26;20458;-67
2024/04/21 12:32:13;;;;;;;4.97;2.17;;;15.00;1.00;;;;;;5518059;26;20525;-67